createdAt,value
2018-07-05T00:00:41.607Z,94845.95
2018-07-05T00:03:28.042Z,94846.47
2018-07-05T00:06:14.285Z,94843.16
2018-07-05T00:09:00.685Z,94839.77
2018-07-05T00:11:47.053Z,94837.64
2018-07-05T00:14:33.462Z,94835.42
2018-07-05T00:17:19.770Z,94833.04
2018-07-05T00:20:06.128Z,94827.69
2018-07-05T00:22:52.485Z,94816.33
2018-07-05T00:25:38.881Z,94812.77
2018-07-05T00:28:25.282Z,94817.70
2018-07-05T00:31:11.638Z,94812.30
2018-07-05T00:33:58.033Z,94814.41
2018-07-05T00:36:44.361Z,94823.21
2018-07-05T00:39:30.757Z,94820.83
2018-07-05T00:42:17.121Z,94822.03
2018-07-05T00:45:03.585Z,94819.42
2018-07-05T00:47:49.935Z,94821.05
2018-07-05T00:50:36.302Z,94820.19
2018-07-05T00:53:22.649Z,94823.74
2018-07-05T00:56:09.048Z,94823.38
2018-07-05T00:58:55.452Z,94819.66
2018-07-05T01:01:41.782Z,94817.50
2018-07-05T01:04:28.209Z,94818.23
2018-07-05T01:07:14.539Z,94818.56
2018-07-05T01:10:00.956Z,94813.92
2018-07-05T01:12:47.227Z,94813.47
2018-07-05T01:15:33.674Z,94809.53
2018-07-05T01:18:20.043Z,94805.64
2018-07-05T01:21:06.449Z,94807.19
2018-07-05T01:23:52.834Z,94806.73
2018-07-05T01:26:39.189Z,94807.96
2018-07-05T01:29:25.612Z,94806.92
2018-07-05T01:32:11.982Z,94804.17
2018-07-05T01:34:58.366Z,94802.33
2018-07-05T01:37:44.745Z,94807.38
2018-07-05T01:40:31.216Z,94821.13
2018-07-05T01:43:17.465Z,94814.62
2018-07-05T01:46:03.856Z,94810.69
2018-07-05T01:48:50.247Z,94806.42
2018-07-05T01:51:36.605Z,94806.67
2018-07-05T01:54:23.000Z,94807.03
2018-07-05T01:57:09.351Z,94806.97
2018-07-05T01:59:55.729Z,94810.20
2018-07-05T02:02:42.097Z,94814.63
2018-07-05T02:05:28.424Z,94803.81
2018-07-05T02:08:14.906Z,94800.63
2018-07-05T02:11:01.193Z,94808.98
2018-07-05T02:13:47.568Z,94805.73
2018-07-05T02:16:33.953Z,94799.92
2018-07-05T02:19:20.289Z,94800.46
2018-07-05T02:22:06.653Z,94794.85
2018-07-05T02:24:53.097Z,94793.28
2018-07-05T02:27:39.447Z,94794.39
2018-07-05T02:30:25.837Z,94797.23
2018-07-05T02:33:12.045Z,94803.37
2018-07-05T02:35:58.414Z,94801.94
2018-07-05T02:38:48.905Z,94805.45
2018-07-05T02:41:35.084Z,94798.80
2018-07-05T02:44:21.294Z,94792.20
2018-07-05T02:47:07.643Z,94795.56
2018-07-05T02:49:53.989Z,94798.06
2018-07-05T02:52:40.398Z,94799.16
2018-07-05T02:55:26.823Z,94806.81
2018-07-05T02:58:13.231Z,94807.64
2018-07-05T03:00:59.580Z,94813.88
2018-07-05T03:03:45.917Z,94806.13
2018-07-05T03:06:32.285Z,94813.85
2018-07-05T03:09:18.724Z,94812.71
2018-07-05T03:12:05.111Z,94814.89
2018-07-05T03:14:51.549Z,94821.09
2018-07-05T03:17:37.957Z,94818.42
2018-07-05T03:20:24.329Z,94817.11
2018-07-05T03:23:10.711Z,94815.90
2018-07-05T03:25:57.118Z,94815.25
2018-07-05T03:28:43.462Z,94811.90
2018-07-05T03:31:29.824Z,94811.21
2018-07-05T03:34:16.201Z,94813.23
2018-07-05T03:37:02.645Z,94816.44
2018-07-05T03:39:49.016Z,94811.29
2018-07-05T03:42:35.274Z,94805.88
2018-07-05T03:45:21.626Z,94808.28
2018-07-05T03:48:08.201Z,94803.73
2018-07-05T03:50:54.542Z,94794.41
2018-07-05T03:53:42.430Z,94795.48
2018-07-05T03:56:28.777Z,94791.05
2018-07-05T03:59:15.201Z,94789.36
2018-07-05T04:02:01.598Z,94787.30
2018-07-05T04:04:48.003Z,94781.45
2018-07-05T04:07:34.407Z,94781.30
2018-07-05T04:10:20.697Z,94781.20
2018-07-05T04:13:06.957Z,94781.53
2018-07-05T04:15:53.311Z,94786.99
2018-07-05T04:18:39.706Z,94782.88
2018-07-05T04:21:26.163Z,94789.39
2018-07-05T04:24:12.398Z,94789.53
2018-07-05T04:26:58.808Z,94789.88
2018-07-05T04:29:45.207Z,94785.44
2018-07-05T04:32:31.567Z,94788.88
2018-07-05T04:35:17.935Z,94786.88
2018-07-05T04:38:04.305Z,94783.52
2018-07-05T04:40:50.719Z,94782.70
2018-07-05T04:43:37.051Z,94787.49
2018-07-05T04:46:23.418Z,94781.91
2018-07-05T04:49:09.810Z,94787.53
2018-07-05T04:51:56.156Z,94790.83
2018-07-05T04:54:42.448Z,94786.37
2018-07-05T04:57:28.815Z,94781.78
2018-07-05T05:00:15.193Z,94775.22
2018-07-05T05:03:01.566Z,94780.42
2018-07-05T05:05:47.864Z,94781.19
2018-07-05T05:08:34.195Z,94777.34
2018-07-05T05:11:20.442Z,94772.17
2018-07-05T05:14:06.836Z,94776.10
2018-07-05T05:16:53.217Z,94772.47
2018-07-05T05:19:39.513Z,94767.41
2018-07-05T05:22:25.871Z,94763.94
2018-07-05T05:25:12.287Z,94768.99
2018-07-05T05:27:58.480Z,94772.77
2018-07-05T05:30:44.888Z,94771.52
2018-07-05T05:33:31.160Z,94773.33
2018-07-05T05:36:17.585Z,94766.34
2018-07-05T05:39:04.972Z,94772.19
2018-07-05T05:41:51.198Z,94773.27
2018-07-05T05:44:37.537Z,94778.38
2018-07-05T05:47:23.725Z,94783.38
2018-07-05T05:50:10.178Z,94786.19
2018-07-05T05:52:56.621Z,94788.63
2018-07-05T05:55:42.880Z,94793.72
2018-07-05T05:58:29.154Z,94791.91
2018-07-05T06:01:15.652Z,94793.11
2018-07-05T06:04:01.902Z,94792.72
2018-07-05T06:06:48.324Z,94799.41
2018-07-05T06:09:35.610Z,94800.09
2018-07-05T06:12:21.965Z,94804.00
2018-07-05T06:15:08.405Z,94796.00
2018-07-05T06:17:54.748Z,94802.86
2018-07-05T06:20:41.511Z,94805.16
2018-07-05T06:23:28.650Z,94808.63
2018-07-05T06:26:15.058Z,94801.03
2018-07-05T06:29:01.463Z,94797.90
2018-07-05T06:31:47.851Z,94793.53
2018-07-05T06:34:34.263Z,94795.02
2018-07-05T06:37:20.629Z,94796.16
2018-07-05T06:40:06.998Z,94791.24
2018-07-05T06:42:53.401Z,94799.80
2018-07-05T06:45:39.809Z,94792.14
2018-07-05T06:48:26.227Z,94794.61
2018-07-05T06:51:12.609Z,94792.22
2018-07-05T06:53:59.012Z,94788.98
2018-07-05T06:56:45.378Z,94790.19
2018-07-05T06:59:31.708Z,94785.41
2018-07-05T07:02:18.118Z,94791.87
2018-07-05T07:05:04.498Z,94789.03
2018-07-05T07:07:50.890Z,94786.75
2018-07-05T07:10:37.197Z,94789.80
2018-07-05T07:13:23.573Z,94795.27
2018-07-05T07:16:09.922Z,94797.55
2018-07-05T07:18:56.315Z,94802.55
2018-07-05T07:21:42.574Z,94803.39
2018-07-05T07:24:29.010Z,94806.11
2018-07-05T07:27:15.326Z,94800.16
2018-07-05T07:30:01.689Z,94799.77
2018-07-05T07:32:48.144Z,94797.20
2018-07-05T07:35:34.508Z,94800.00
2018-07-05T07:38:20.732Z,94799.66
2018-07-05T07:41:07.140Z,94802.55
2018-07-05T07:43:41.073Z,94795.37
2018-07-05T07:46:08.897Z,94797.00
2018-07-05T07:48:36.723Z,94792.48
2018-07-05T07:51:04.550Z,94793.38
2018-07-05T07:53:32.368Z,94799.00
2018-07-05T07:56:00.200Z,94792.39
2018-07-05T07:58:28.071Z,94791.98
2018-07-05T08:00:55.973Z,94787.53
2018-07-05T08:03:23.777Z,94792.70
2018-07-05T08:05:51.652Z,94787.95
2018-07-05T08:08:19.466Z,94789.34
2018-07-05T08:10:47.266Z,94789.09
2018-07-05T08:13:15.213Z,94783.19
2018-07-05T08:15:43.205Z,94771.74
2018-07-05T08:18:11.019Z,94781.16
2018-07-05T08:20:38.908Z,94780.37
2018-07-05T08:23:06.816Z,94778.18
2018-07-05T08:25:34.657Z,94779.34
2018-07-05T08:28:02.515Z,94782.22
2018-07-05T08:30:30.312Z,94781.66
2018-07-05T08:35:24.970Z,94788.98
2018-07-05T08:37:52.845Z,94779.16
2018-07-05T08:40:20.677Z,94786.54
2018-07-05T08:42:48.829Z,94784.97
2018-07-05T08:45:16.948Z,94776.80
2018-07-05T08:47:45.020Z,94787.34
2018-07-05T08:50:12.867Z,94779.66
2018-07-05T08:52:40.690Z,94770.20
2018-07-05T08:55:08.499Z,94771.18
2018-07-05T08:57:36.379Z,94768.75
2018-07-05T09:00:04.178Z,94771.81
2018-07-05T09:02:32.090Z,94781.75
2018-07-05T09:04:59.906Z,94775.28
2018-07-05T09:07:27.787Z,94777.05
2018-07-05T09:09:55.644Z,94777.04
2018-07-05T09:12:23.505Z,94769.73
2018-07-05T09:14:51.338Z,94769.66
2018-07-05T09:17:19.139Z,94772.14
2018-07-05T09:19:46.941Z,94769.03
2018-07-05T09:22:14.746Z,94758.55
2018-07-05T09:24:42.578Z,94772.49
2018-07-05T09:27:10.385Z,94775.56
2018-07-05T09:29:38.247Z,94779.11
2018-07-05T09:32:06.041Z,94779.37
2018-07-05T09:34:33.997Z,94780.59
2018-07-05T09:37:01.828Z,94778.45
2018-07-05T09:39:29.667Z,94783.03
2018-07-05T09:41:57.493Z,94782.56
2018-07-05T09:44:25.311Z,94780.77
2018-07-05T09:46:53.143Z,94781.83
2018-07-05T09:49:20.971Z,94785.45
2018-07-05T09:51:48.786Z,94779.28
2018-07-05T09:54:16.636Z,94778.41
2018-07-05T09:56:44.471Z,94772.91
2018-07-05T09:59:12.549Z,94767.52
2018-07-05T10:01:40.350Z,94773.64
2018-07-05T10:04:08.178Z,94778.19
2018-07-05T10:06:36.001Z,94768.95
2018-07-05T10:09:04.827Z,94776.52
2018-07-05T10:11:32.653Z,94778.47
2018-07-05T10:14:00.706Z,94786.21
2018-07-05T10:16:28.784Z,94783.79
2018-07-05T10:18:56.672Z,94780.88
2018-07-05T10:21:24.482Z,94788.14
2018-07-05T10:23:52.368Z,94799.38
2018-07-05T10:26:20.177Z,94800.26
2018-07-05T10:29:00.322Z,94801.66
2018-07-05T10:31:47.152Z,94808.48
2018-07-05T10:34:21.145Z,94809.22
2018-07-05T10:36:48.949Z,94810.42
2018-07-05T10:39:16.769Z,94811.59
2018-07-05T10:41:57.290Z,94817.80
2018-07-05T10:44:43.850Z,94815.70
2018-07-05T10:47:31.406Z,94828.53
2018-07-05T10:50:17.996Z,94830.62
2018-07-05T10:53:04.579Z,94827.51
2018-07-05T10:55:51.168Z,94822.95
2018-07-05T10:58:37.764Z,94811.81
2018-07-05T11:01:24.429Z,94811.81
2018-07-05T11:04:10.981Z,94819.92
2018-07-05T11:06:57.498Z,94809.13
2018-07-05T11:09:44.020Z,94813.28
2018-07-05T11:12:30.686Z,94814.41
2018-07-05T11:15:17.350Z,94812.26
2018-07-05T11:18:04.061Z,94809.11
2018-07-05T11:20:50.681Z,94815.61
2018-07-05T11:23:37.158Z,94825.63
2018-07-05T11:26:23.824Z,94837.33
2018-07-05T11:29:10.423Z,94840.11
2018-07-05T11:31:57.072Z,94838.52
2018-07-05T11:34:43.690Z,94845.12
2018-07-05T11:37:30.318Z,94842.63
2018-07-05T11:40:17.235Z,94848.50
2018-07-05T11:43:03.705Z,94844.84
2018-07-05T11:45:50.373Z,94840.41
2018-07-05T11:48:37.031Z,94840.49
2018-07-05T11:51:23.592Z,94837.89
2018-07-05T11:54:10.351Z,94846.04
2018-07-05T11:59:57.689Z,94833.22
2018-07-05T12:02:44.404Z,94829.86
2018-07-05T12:05:30.806Z,94832.47
2018-07-05T12:08:17.282Z,94834.36
2018-07-05T12:11:03.907Z,94833.02
2018-07-05T12:13:50.511Z,94834.36
2018-07-05T12:16:37.107Z,94828.84
2018-07-05T12:19:23.635Z,94831.58
2018-07-05T12:22:10.287Z,94834.70
2018-07-05T12:24:56.842Z,94839.09
2018-07-05T12:27:43.304Z,94836.39
2018-07-05T12:30:30.113Z,94841.72
2018-07-05T12:33:16.538Z,94836.35
2018-07-05T12:36:02.838Z,94828.20
2018-07-05T12:38:49.470Z,94827.53
2018-07-05T12:41:37.018Z,94820.86
2018-07-05T12:44:23.465Z,94822.70
2018-07-05T12:47:09.984Z,94817.34
2018-07-05T12:49:56.432Z,94822.00
2018-07-05T12:52:43.579Z,94817.52
2018-07-05T12:55:30.098Z,94814.11
2018-07-05T12:58:16.703Z,94821.59
2018-07-05T13:01:03.298Z,94831.23
2018-07-05T13:03:49.885Z,94830.28
2018-07-05T13:06:36.446Z,94827.25
2018-07-05T13:09:22.972Z,94812.30
2018-07-05T13:12:09.430Z,94819.38
2018-07-05T13:14:56.017Z,94815.63
2018-07-05T13:17:42.641Z,94819.06
2018-07-05T13:20:29.031Z,94822.25
2018-07-05T13:23:15.449Z,94819.94
2018-07-05T13:26:02.034Z,94824.56
2018-07-05T13:28:48.514Z,94829.62
2018-07-05T13:31:35.074Z,94827.52
2018-07-05T13:34:21.489Z,94824.55
2018-07-05T13:37:07.932Z,94830.92
2018-07-05T13:39:55.720Z,94832.39
2018-07-05T13:42:42.228Z,94838.54
2018-07-05T13:45:28.644Z,94840.73
2018-07-05T13:48:15.087Z,94842.27
2018-07-05T13:51:01.654Z,94839.98
2018-07-05T13:53:48.172Z,94844.78
2018-07-05T13:56:34.825Z,94842.89
2018-07-05T13:59:21.489Z,94855.73
2018-07-05T14:02:08.028Z,94858.24
2018-07-05T14:04:54.756Z,94856.28
2018-07-05T14:07:42.318Z,94856.06
2018-07-05T14:10:28.897Z,94860.45
2018-07-05T14:13:15.379Z,94865.25
2018-07-05T14:16:01.990Z,94870.52
2018-07-05T14:18:48.497Z,94866.59
2018-07-05T14:21:35.081Z,94862.30
2018-07-05T14:24:21.638Z,94862.30
2018-07-05T14:27:08.217Z,94861.55
2018-07-05T14:29:54.897Z,94872.45
2018-07-05T14:32:41.290Z,94874.91
2018-07-05T14:35:27.693Z,94876.57
2018-07-05T14:38:14.044Z,94871.98
2018-07-05T14:41:00.650Z,94866.17
2018-07-05T14:43:47.549Z,94865.82
2018-07-05T14:46:35.234Z,94853.61
2018-07-05T14:49:21.774Z,94851.88
2018-07-05T14:52:08.334Z,94860.37
2018-07-05T14:54:54.693Z,94861.19
2018-07-05T14:57:41.201Z,94856.95
2018-07-05T15:00:27.696Z,94855.31
2018-07-05T15:03:14.042Z,94851.47
2018-07-05T15:06:00.506Z,94850.55
2018-07-05T15:08:47.232Z,94851.02
2018-07-05T15:11:33.509Z,94846.40
2018-07-05T15:14:20.138Z,94841.13
2018-07-05T15:17:06.545Z,94848.95
2018-07-05T15:19:53.074Z,94848.03
2018-07-05T15:22:39.624Z,94853.58
2018-07-05T15:25:26.261Z,94848.99
2018-07-05T15:28:12.865Z,94860.02
2018-07-05T15:30:59.647Z,94862.69
2018-07-05T15:33:46.129Z,94863.72
2018-07-05T15:36:32.719Z,94861.79
2018-07-05T15:39:19.187Z,94861.98
2018-07-05T15:42:05.529Z,94869.42
2018-07-05T15:44:51.919Z,94867.89
2018-07-05T15:47:38.775Z,94860.98
2018-07-05T15:50:25.301Z,94862.03
2018-07-05T15:53:12.190Z,94854.73
2018-07-05T15:55:58.733Z,94857.94
2018-07-05T15:58:45.152Z,94861.27
2018-07-05T16:01:31.626Z,94859.69
2018-07-05T16:04:18.182Z,94861.13
2018-07-05T16:07:04.717Z,94860.10
2018-07-05T16:09:51.442Z,94864.89
2018-07-05T16:12:37.965Z,94861.05
2018-07-05T16:15:24.532Z,94865.81
2018-07-05T16:18:11.302Z,94856.72
2018-07-05T16:20:57.782Z,94850.86
2018-07-05T16:23:44.395Z,94850.67
2018-07-05T16:26:30.916Z,94847.67
2018-07-05T16:29:17.432Z,94840.53
2018-07-05T16:32:04.007Z,94842.40
2018-07-05T16:34:50.525Z,94837.69
2018-07-05T16:37:37.105Z,94840.13
2018-07-05T16:40:23.557Z,94832.23
2018-07-05T16:43:10.125Z,94824.76
2018-07-05T16:45:56.829Z,94819.98
2018-07-05T16:48:43.317Z,94833.27
2018-07-05T16:51:29.912Z,94826.53
2018-07-05T16:54:16.381Z,94823.87
2018-07-05T16:57:03.059Z,94824.83
2018-07-05T16:59:49.742Z,94825.64
2018-07-05T17:02:36.314Z,94827.37
2018-07-05T17:05:22.681Z,94825.20
2018-07-05T17:08:09.254Z,94819.52
2018-07-05T17:10:56.107Z,94818.86
2018-07-05T17:13:42.665Z,94821.84
2018-07-05T17:16:28.997Z,94821.31
2018-07-05T17:19:15.634Z,94817.68
2018-07-05T17:22:01.876Z,94819.58
2018-07-05T17:24:48.589Z,94821.52
2018-07-05T17:27:35.283Z,94824.86
2018-07-05T17:30:21.802Z,94826.51
2018-07-05T17:33:08.474Z,94830.76
2018-07-05T17:35:55.069Z,94830.36
2018-07-05T17:38:41.613Z,94830.92
2018-07-05T17:41:28.090Z,94829.92
2018-07-05T17:44:14.782Z,94835.58
2018-07-05T17:47:01.413Z,94834.70
2018-07-05T17:49:47.838Z,94839.87
2018-07-05T17:52:34.349Z,94838.70
2018-07-05T17:55:21.061Z,94845.43
2018-07-05T17:58:07.586Z,94840.59
2018-07-05T18:00:54.148Z,94840.20
2018-07-05T18:03:40.740Z,94841.84
2018-07-05T18:06:27.361Z,94843.09
2018-07-05T18:09:13.859Z,94845.28
2018-07-05T18:12:00.554Z,94847.48
2018-07-05T18:14:46.949Z,94852.55
2018-07-05T18:17:33.592Z,94853.75
2018-07-05T18:20:20.196Z,94853.58
2018-07-05T18:23:06.848Z,94857.24
2018-07-05T18:25:53.289Z,94858.25
2018-07-05T18:28:40.030Z,94863.15
2018-07-05T18:31:26.437Z,94857.66
2018-07-05T18:34:13.025Z,94861.53
2018-07-05T18:36:59.612Z,94865.52
2018-07-05T18:39:46.173Z,94868.61
2018-07-05T18:42:32.733Z,94865.17
2018-07-05T18:45:19.145Z,94866.95
2018-07-05T18:48:05.749Z,94862.05
2018-07-05T18:50:52.325Z,94867.86
2018-07-05T18:53:38.837Z,94868.28
2018-07-05T18:56:25.491Z,94864.23
2018-07-05T18:59:12.080Z,94863.45
2018-07-05T19:01:58.678Z,94864.94
2018-07-05T19:04:45.169Z,94874.05
2018-07-05T19:07:31.674Z,94876.89
2018-07-05T19:10:18.449Z,94877.23
2018-07-05T19:13:05.029Z,94888.41
2018-07-05T19:15:51.525Z,94889.27
2018-07-05T19:18:38.242Z,94887.03
2018-07-05T19:21:24.834Z,94890.80
2018-07-05T19:24:11.513Z,94892.47
2018-07-05T19:26:58.074Z,94889.00
2018-07-05T19:29:44.681Z,94893.02
2018-07-05T19:32:31.257Z,94898.83
2018-07-05T19:35:17.857Z,94901.94
2018-07-05T19:38:04.423Z,94898.45
2018-07-05T19:40:50.898Z,94899.28
2018-07-05T19:43:37.368Z,94900.47
2018-07-05T19:46:23.877Z,94906.67
2018-07-05T19:49:10.579Z,94909.66
2018-07-05T19:51:57.074Z,94915.93
2018-07-05T19:54:43.585Z,94920.70
2018-07-05T19:57:30.067Z,94921.47
2018-07-05T20:00:16.641Z,94921.58
2018-07-05T20:03:03.050Z,94924.43
2018-07-05T20:05:49.392Z,94933.94
2018-07-05T20:08:35.924Z,94932.19
2018-07-05T20:11:22.509Z,94936.60
2018-07-05T20:14:09.261Z,94937.78
2018-07-05T20:16:55.717Z,94946.95
2018-07-05T20:19:42.101Z,94935.80
2018-07-05T20:22:28.545Z,94936.48
2018-07-05T20:25:15.230Z,94937.45
2018-07-05T20:28:01.819Z,94940.13
2018-07-05T20:30:48.585Z,94939.25
2018-07-05T20:33:35.314Z,94949.14
2018-07-05T20:36:21.798Z,94952.02
2018-07-05T20:39:08.789Z,94955.75
2018-07-05T20:41:54.981Z,94960.64
2018-07-05T20:44:41.421Z,94957.80
2018-07-05T20:47:27.790Z,94962.87
2018-07-05T20:50:14.297Z,94964.20
2018-07-05T20:53:00.775Z,94958.98
2018-07-05T20:55:47.239Z,94961.97
2018-07-05T20:58:33.507Z,94953.44
2018-07-05T21:01:20.817Z,94954.85
2018-07-05T21:04:07.493Z,94957.48
2018-07-05T21:06:54.102Z,94967.23
2018-07-05T21:09:40.887Z,94965.34
2018-07-05T21:12:27.541Z,94972.94
2018-07-05T21:15:14.363Z,94971.23
2018-07-05T21:18:01.196Z,94984.40
2018-07-05T21:20:47.940Z,94980.41
2018-07-05T21:23:34.123Z,94983.83
2018-07-05T21:26:20.580Z,94988.27
2018-07-05T21:29:06.970Z,94987.74
2018-07-05T21:31:53.285Z,94988.42
2018-07-05T21:34:39.677Z,94996.34
2018-07-05T21:37:26.043Z,95000.65
2018-07-05T21:40:12.473Z,94999.30
2018-07-05T21:42:58.858Z,94999.23
2018-07-05T21:45:45.249Z,95005.12
2018-07-05T21:48:31.625Z,95015.61
2018-07-05T21:51:18.059Z,95018.61
2018-07-05T21:54:04.440Z,95021.87
2018-07-05T21:56:50.834Z,95014.20
2018-07-05T21:59:37.187Z,95022.19
2018-07-05T22:02:23.571Z,95019.97
2018-07-05T22:05:13.211Z,95029.05
2018-07-05T22:07:59.489Z,95033.23
2018-07-05T22:10:45.998Z,95031.13
2018-07-05T22:13:32.457Z,95037.60
2018-07-05T22:16:18.965Z,95035.53
2018-07-05T22:19:10.607Z,95032.93
2018-07-05T22:22:02.074Z,95036.56
2018-07-05T22:26:56.785Z,95035.53
2018-07-05T22:29:48.508Z,95036.44
2018-07-05T22:32:34.770Z,95036.54
2018-07-05T22:35:21.199Z,95036.67
2018-07-05T22:38:07.537Z,95044.53
2018-07-05T22:40:53.913Z,95041.58
2018-07-05T22:43:41.318Z,95045.94
2018-07-05T22:46:27.745Z,95041.34
2018-07-05T22:49:14.145Z,95045.30
2018-07-05T22:52:00.618Z,95044.27
2018-07-05T22:54:46.982Z,95041.31
2018-07-05T22:57:33.405Z,95047.76
2018-07-05T23:00:19.699Z,95053.67
2018-07-05T23:03:06.115Z,95046.67
2018-07-05T23:05:52.503Z,95057.75
2018-07-05T23:08:38.862Z,95062.96
2018-07-05T23:11:25.249Z,95051.50
2018-07-05T23:14:11.665Z,95057.84
2018-07-05T23:16:58.176Z,95057.47
2018-07-05T23:19:44.577Z,95061.70
2018-07-05T23:22:30.876Z,95056.39
2018-07-05T23:25:17.209Z,95057.62
2018-07-05T23:28:03.547Z,95048.80
2018-07-05T23:30:49.963Z,95055.14
2018-07-05T23:33:36.302Z,95050.14
2018-07-05T23:36:22.546Z,95052.72
2018-07-05T23:39:08.899Z,95056.53
2018-07-05T23:41:55.354Z,95059.46
2018-07-05T23:44:41.748Z,95054.52
2018-07-05T23:47:28.195Z,95062.97
2018-07-05T23:50:14.466Z,95067.34
2018-07-05T23:53:00.882Z,95065.31
2018-07-05T23:55:47.322Z,95065.58
2018-07-05T23:58:33.726Z,95066.36
